<?xml version="1.0" encoding="UTF-8" standalone="no" ?>
<gpx xmlns="http://www.topografix.com/GPX/1/1" xmlns:xsi="http://www.w3.org/2001/XMLSchema-instance" xsi:schemaLocation="http://www.topografix.com/GPX/1/1 http://www.topografix.com/GPX/1/1/gpx.xsd" version="1.1" creator="VisuGPX - https://www.visugpx.com">
  <metadata>
    <name>De Meillerie à Salvigny</name>
    <desc><![CDATA[Randonnée en Haute-Savoie]]></desc>
  </metadata>
  <trk>
    <name><![CDATA[ACTIVE LOG: 29 JUL 2015 14:43]]></name>
    <trkseg>
      <trkpt lat="46.05632" lon="6.74782">
        <ele>764.39</ele>
        <time>2015-07-29T12:44:57Z</time>
      </trkpt>
      <trkpt lat="46.05645" lon="6.74872">
        <ele>760.54</ele>
        <time>2015-07-29T12:46:02Z</time>
      </trkpt>
      <trkpt lat="46.05602" lon="6.7496">
        <ele>754.77</ele>
        <time>2015-07-29T12:47:07Z</time>
      </trkpt>
      <trkpt lat="46.05554" lon="6.75028">
        <ele>751.89</ele>
        <time>2015-07-29T12:48:12Z</time>
      </trkpt>
      <trkpt lat="46.055" lon="6.75104">
        <ele>746.6</ele>
        <time>2015-07-29T12:49:17Z</time>
      </trkpt>
      <trkpt lat="46.05515" lon="6.75188">
        <ele>742.28</ele>
        <time>2015-07-29T12:50:22Z</time>
      </trkpt>
      <trkpt lat="46.05534" lon="6.75289">
        <ele>742.76</ele>
        <time>2015-07-29T12:51:27Z</time>
      </trkpt>
      <trkpt lat="46.05565" lon="6.75378">
        <ele>742.76</ele>
        <time>2015-07-29T12:52:32Z</time>
      </trkpt>
      <trkpt lat="46.0558" lon="6.75483">
        <ele>744.68</ele>
        <time>2015-07-29T12:53:37Z</time>
      </trkpt>
      <trkpt lat="46.05554" lon="6.75567">
        <ele>744.68</ele>
        <time>2015-07-29T12:54:42Z</time>
      </trkpt>
      <trkpt lat="46.05561" lon="6.75596">
        <ele>749.97</ele>
        <time>2015-07-29T12:55:47Z</time>
      </trkpt>
      <trkpt lat="46.0557" lon="6.75604">
        <ele>749.97</ele>
        <time>2015-07-29T12:56:52Z</time>
      </trkpt>
      <trkpt lat="46.05577" lon="6.75601">
        <ele>749.49</ele>
        <time>2015-07-29T12:57:57Z</time>
      </trkpt>
      <trkpt lat="46.05568" lon="6.75604">
        <ele>749</ele>
        <time>2015-07-29T12:59:02Z</time>
      </trkpt>
      <trkpt lat="46.0555" lon="6.75601">
        <ele>746.12</ele>
        <time>2015-07-29T13:00:07Z</time>
      </trkpt>
      <trkpt lat="46.05467" lon="6.75607">
        <ele>749.97</ele>
        <time>2015-07-29T13:01:12Z</time>
      </trkpt>
      <trkpt lat="46.05433" lon="6.75638">
        <ele>759.1</ele>
        <time>2015-07-29T13:02:17Z</time>
      </trkpt>
      <trkpt lat="46.05381" lon="6.75668">
        <ele>761.98</ele>
        <time>2015-07-29T13:03:22Z</time>
      </trkpt>
      <trkpt lat="46.0533" lon="6.75674">
        <ele>770.15</ele>
        <time>2015-07-29T13:04:27Z</time>
      </trkpt>
      <trkpt lat="46.05313" lon="6.75691">
        <ele>773.04</ele>
        <time>2015-07-29T13:05:32Z</time>
      </trkpt>
      <trkpt lat="46.0532" lon="6.75693">
        <ele>771.11</ele>
        <time>2015-07-29T13:06:37Z</time>
      </trkpt>
      <trkpt lat="46.05313" lon="6.75715">
        <ele>770.15</ele>
        <time>2015-07-29T13:07:42Z</time>
      </trkpt>
      <trkpt lat="46.05314" lon="6.75734">
        <ele>771.11</ele>
        <time>2015-07-29T13:08:47Z</time>
      </trkpt>
      <trkpt lat="46.05295" lon="6.75742">
        <ele>776.4</ele>
        <time>2015-07-29T13:09:52Z</time>
      </trkpt>
      <trkpt lat="46.05278" lon="6.75754">
        <ele>782.17</ele>
        <time>2015-07-29T13:10:57Z</time>
      </trkpt>
      <trkpt lat="46.05268" lon="6.75767">
        <ele>786.02</ele>
        <time>2015-07-29T13:12:02Z</time>
      </trkpt>
      <trkpt lat="46.05249" lon="6.75781">
        <ele>787.46</ele>
        <time>2015-07-29T13:13:07Z</time>
      </trkpt>
      <trkpt lat="46.05245" lon="6.75787">
        <ele>788.9</ele>
        <time>2015-07-29T13:14:12Z</time>
      </trkpt>
      <trkpt lat="46.05264" lon="6.75837">
        <ele>789.38</ele>
        <time>2015-07-29T13:15:17Z</time>
      </trkpt>
      <trkpt lat="46.05275" lon="6.75882">
        <ele>790.82</ele>
        <time>2015-07-29T13:16:22Z</time>
      </trkpt>
      <trkpt lat="46.05296" lon="6.75937">
        <ele>786.98</ele>
        <time>2015-07-29T13:17:27Z</time>
      </trkpt>
      <trkpt lat="46.05319" lon="6.75945">
        <ele>787.46</ele>
        <time>2015-07-29T13:18:32Z</time>
      </trkpt>
      <trkpt lat="46.05344" lon="6.7595">
        <ele>787.94</ele>
        <time>2015-07-29T13:19:37Z</time>
      </trkpt>
      <trkpt lat="46.05336" lon="6.75954">
        <ele>787.94</ele>
        <time>2015-07-29T13:20:42Z</time>
      </trkpt>
      <trkpt lat="46.05348" lon="6.75952">
        <ele>788.42</ele>
        <time>2015-07-29T13:21:47Z</time>
      </trkpt>
      <trkpt lat="46.05356" lon="6.7596">
        <ele>789.38</ele>
        <time>2015-07-29T13:22:52Z</time>
      </trkpt>
      <trkpt lat="46.05353" lon="6.75994">
        <ele>796.11</ele>
        <time>2015-07-29T13:23:57Z</time>
      </trkpt>
      <trkpt lat="46.0535" lon="6.75995">
        <ele>807.16</ele>
        <time>2015-07-29T13:25:02Z</time>
      </trkpt>
      <trkpt lat="46.05339" lon="6.76004">
        <ele>817.26</ele>
        <time>2015-07-29T13:26:07Z</time>
      </trkpt>
      <trkpt lat="46.05331" lon="6.76013">
        <ele>830.24</ele>
        <time>2015-07-29T13:27:12Z</time>
      </trkpt>
      <trkpt lat="46.05382" lon="6.76063">
        <ele>841.29</ele>
        <time>2015-07-29T13:28:17Z</time>
      </trkpt>
      <trkpt lat="46.05366" lon="6.76093">
        <ele>849.94</ele>
        <time>2015-07-29T13:29:22Z</time>
      </trkpt>
      <trkpt lat="46.05356" lon="6.76121">
        <ele>854.27</ele>
        <time>2015-07-29T13:30:27Z</time>
      </trkpt>
      <trkpt lat="46.05376" lon="6.76188">
        <ele>859.56</ele>
        <time>2015-07-29T13:31:32Z</time>
      </trkpt>
      <trkpt lat="46.05347" lon="6.762">
        <ele>864.36</ele>
        <time>2015-07-29T13:32:37Z</time>
      </trkpt>
      <trkpt lat="46.05325" lon="6.76212">
        <ele>861.48</ele>
        <time>2015-07-29T13:33:42Z</time>
      </trkpt>
      <trkpt lat="46.05323" lon="6.7622">
        <ele>855.23</ele>
        <time>2015-07-29T13:34:47Z</time>
      </trkpt>
      <trkpt lat="46.05303" lon="6.76259">
        <ele>851.38</ele>
        <time>2015-07-29T13:35:52Z</time>
      </trkpt>
      <trkpt lat="46.05273" lon="6.76281">
        <ele>846.58</ele>
        <time>2015-07-29T13:36:57Z</time>
      </trkpt>
      <trkpt lat="46.05271" lon="6.7629">
        <ele>843.21</ele>
        <time>2015-07-29T13:38:02Z</time>
      </trkpt>
      <trkpt lat="46.05263" lon="6.763">
        <ele>842.73</ele>
        <time>2015-07-29T13:39:07Z</time>
      </trkpt>
      <trkpt lat="46.05272" lon="6.76307">
        <ele>838.89</ele>
        <time>2015-07-29T13:40:12Z</time>
      </trkpt>
      <trkpt lat="46.05255" lon="6.76321">
        <ele>831.68</ele>
        <time>2015-07-29T13:41:17Z</time>
      </trkpt>
      <trkpt lat="46.05239" lon="6.7633">
        <ele>823.99</ele>
        <time>2015-07-29T13:42:22Z</time>
      </trkpt>
      <trkpt lat="46.05219" lon="6.76347">
        <ele>815.82</ele>
        <time>2015-07-29T13:43:27Z</time>
      </trkpt>
      <trkpt lat="46.05217" lon="6.76372">
        <ele>806.2</ele>
        <time>2015-07-29T13:44:32Z</time>
      </trkpt>
      <trkpt lat="46.05204" lon="6.76385">
        <ele>798.99</ele>
        <time>2015-07-29T13:45:37Z</time>
      </trkpt>
      <trkpt lat="46.05179" lon="6.76402">
        <ele>790.82</ele>
        <time>2015-07-29T13:46:42Z</time>
      </trkpt>
      <trkpt lat="46.05158" lon="6.76412">
        <ele>784.09</ele>
        <time>2015-07-29T13:47:47Z</time>
      </trkpt>
      <trkpt lat="46.05134" lon="6.76427">
        <ele>780.25</ele>
        <time>2015-07-29T13:48:52Z</time>
      </trkpt>
      <trkpt lat="46.0509" lon="6.76434">
        <ele>779.77</ele>
        <time>2015-07-29T13:49:57Z</time>
      </trkpt>
      <trkpt lat="46.05048" lon="6.7642">
        <ele>780.25</ele>
        <time>2015-07-29T13:51:02Z</time>
      </trkpt>
      <trkpt lat="46.0501" lon="6.76433">
        <ele>779.29</ele>
        <time>2015-07-29T13:52:07Z</time>
      </trkpt>
      <trkpt lat="46.04971" lon="6.76443">
        <ele>780.73</ele>
        <time>2015-07-29T13:53:12Z</time>
      </trkpt>
      <trkpt lat="46.04962" lon="6.76441">
        <ele>780.73</ele>
        <time>2015-07-29T13:54:17Z</time>
      </trkpt>
      <trkpt lat="46.04929" lon="6.76391">
        <ele>781.69</ele>
        <time>2015-07-29T13:55:22Z</time>
      </trkpt>
      <trkpt lat="46.04903" lon="6.76409">
        <ele>776.4</ele>
        <time>2015-07-29T13:56:27Z</time>
      </trkpt>
      <trkpt lat="46.0484" lon="6.76413">
        <ele>768.23</ele>
        <time>2015-07-29T13:57:32Z</time>
      </trkpt>
      <trkpt lat="46.04778" lon="6.76401">
        <ele>772.08</ele>
        <time>2015-07-29T13:58:37Z</time>
      </trkpt>
      <trkpt lat="46.04775" lon="6.76472">
        <ele>771.11</ele>
        <time>2015-07-29T13:59:42Z</time>
      </trkpt>
      <trkpt lat="46.04785" lon="6.76543">
        <ele>779.77</ele>
        <time>2015-07-29T14:00:47Z</time>
      </trkpt>
      <trkpt lat="46.04754" lon="6.76598">
        <ele>787.94</ele>
        <time>2015-07-29T14:01:52Z</time>
      </trkpt>
      <trkpt lat="46.04712" lon="6.76633">
        <ele>793.71</ele>
        <time>2015-07-29T14:02:57Z</time>
      </trkpt>
      <trkpt lat="46.04689" lon="6.76703">
        <ele>801.88</ele>
        <time>2015-07-29T14:04:02Z</time>
      </trkpt>
      <trkpt lat="46.04682" lon="6.76777">
        <ele>809.09</ele>
        <time>2015-07-29T14:05:07Z</time>
      </trkpt>
      <trkpt lat="46.04682" lon="6.7686">
        <ele>819.66</ele>
        <time>2015-07-29T14:06:12Z</time>
      </trkpt>
      <trkpt lat="46.04679" lon="6.76935">
        <ele>828.31</ele>
        <time>2015-07-29T14:07:17Z</time>
      </trkpt>
      <trkpt lat="46.04637" lon="6.76963">
        <ele>833.12</ele>
        <time>2015-07-29T14:08:22Z</time>
      </trkpt>
    </trkseg>
  </trk>
</gpx>